Hesston, Pennsylvania
Current Conditions -  °F | °C
As of 7:53 PM on Saturday 22 Nov 2014 (Local Time) from KAOO Reporting Station
Overcast Overcast  
Wind Chill: 38°   Ceiling: 6000
Heat Index: 41°   Visibility: 10mi
Dew Point: 29°   Wind: 5mph
Humidity: 62%   Direction: 180°S
Pressure: 30.16"   Gusts: NA
Location:  40.42°N, 78.11°W
Report Text: KAOO 230053Z AUTO 18004KT 10SM OVC060 05/M02 A3016 RMK AO2 SLP232 T00501017
Loading
Personal Weather Stations






























Interactive Weather Map New forecast layout! Learn more

10-Day Weather Forecast

Advertisements
Track Severe Weather on mobile